Time;durP1;ratioP1;P1;durP2;ratioP2;P2;SDS_P1;SDS_P2;PMS_P1;PMS_P2;Temp;Humidity;BMP_temperature;BMP_pressure;BME280_temperature;BME280_humidity;BME280_pressure;Samples;Min_cycle;Max_cycle;Signal;HPM_P1;HPM_P2
2022/08/28 00:00:16;;;;;;;8.32;6.00;;;25.60;99.90;;;;;;5090822;28;20045;-73
2022/08/28 00:02:45;;;;;;;13.82;6.53;;;25.60;99.90;;;;;;5066747;28;20479;-73
2022/08/28 00:05:14;;;;;;;9.07;6.75;;;25.60;99.90;;;;;;5049945;28;20396;-73
2022/08/28 00:07:42;;;;;;;7.60;5.50;;;25.60;99.90;;;;;;5032982;28;20053;-73
2022/08/28 00:10:15;;;;;;;12.43;6.55;;;25.60;99.90;;;;;;5033435;28;20151;-73
2022/08/28 00:12:45;;;;;;;8.73;5.57;;;25.50;99.90;;;;;;5066623;28;20036;-73
2022/08/28 00:15:17;;;;;;;10.55;6.00;;;25.50;99.90;;;;;;5033322;28;20057;-73
2022/08/28 00:17:45;;;;;;;8.25;5.70;;;25.50;99.90;;;;;;5066171;28;20072;-72
2022/08/28 00:20:17;;;;;;;9.88;4.88;;;25.50;99.90;;;;;;5049725;28;20637;-73
2022/08/28 00:22:45;;;;;;;9.60;5.05;;;25.40;99.90;;;;;;5049334;28;20049;-73
2022/08/28 00:25:14;;;;;;;13.38;5.97;;;25.50;99.90;;;;;;5049579;28;20041;-73
2022/08/28 00:27:55;;;;;;;9.35;6.10;;;25.50;99.90;;;;;;5049372;28;20091;-73
2022/08/28 00:30:26;;;;;;;8.43;5.65;;;25.40;99.90;;;;;;5033046;28;20057;-74
2022/08/28 00:32:57;;;;;;;10.40;6.18;;;25.40;99.90;;;;;;5066099;28;20048;-73
2022/08/28 00:35:25;;;;;;;10.05;6.32;;;25.40;99.90;;;;;;5049470;28;20729;-73
2022/08/28 00:37:54;;;;;;;10.23;4.97;;;25.50;99.90;;;;;;5050753;28;20041;-73
2022/08/28 00:40:24;;;;;;;12.75;6.57;;;25.50;99.90;;;;;;5049645;28;20056;-72
2022/08/28 00:42:54;;;;;;;12.20;7.03;;;25.50;99.90;;;;;;5066095;28;20484;-73
2022/08/28 00:45:23;;;;;;;9.57;5.72;;;25.40;99.90;;;;;;5083005;28;20056;-73
2022/08/28 00:47:51;;;;;;;9.02;5.75;;;25.40;99.90;;;;;;5066063;28;20048;-73
2022/08/28 00:50:23;;;;;;;11.90;6.57;;;25.30;99.90;;;;;;5049440;28;20041;-73
2022/08/28 00:52:58;;;;;;;8.95;6.20;;;25.40;99.90;;;;;;5080699;28;20056;-73
2022/08/28 00:55:27;;;;;;;13.88;7.72;;;25.20;99.90;;;;;;5065876;28;20041;-74
2022/08/28 00:57:59;;;;;;;11.70;6.53;;;25.10;99.90;;;;;;5065867;28;20531;-73
2022/08/28 01:00:39;;;;;;;14.32;6.95;;;25.10;99.90;;;;;;5032748;28;20103;-75
2022/08/28 01:03:07;;;;;;;13.35;6.80;;;25.20;99.90;;;;;;5032808;28;20064;-73
2022/08/28 01:05:36;;;;;;;12.77;7.32;;;25.20;99.90;;;;;;5050483;28;20044;-73
2022/08/28 01:08:04;;;;;;;14.25;8.18;;;25.10;99.90;;;;;;5065622;28;20447;-73
2022/08/28 01:10:33;;;;;;;13.32;6.63;;;25.10;99.90;;;;;;5051486;28;20043;-73
2022/08/28 01:13:01;;;;;;;13.88;7.00;;;25.00;99.90;;;;;;5068799;28;20079;-72
2022/08/28 01:15:35;;;;;;;8.65;5.78;;;25.10;99.90;;;;;;5069071;28;20081;-73
2022/08/28 01:18:07;;;;;;;12.48;7.40;;;25.10;99.90;;;;;;5068986;28;20048;-72
2022/08/28 01:20:40;;;;;;;13.18;8.38;;;25.10;99.90;;;;;;5052884;28;20554;-73
2022/08/28 01:23:12;;;;;;;9.10;6.47;;;25.20;99.90;;;;;;5085855;28;20045;-72
2022/08/28 01:25:41;;;;;;;12.00;6.28;;;25.20;99.90;;;;;;5052184;28;20372;-73
2022/08/28 01:28:12;;;;;;;10.30;6.72;;;25.10;99.90;;;;;;5052831;28;20052;-73
2022/08/28 01:30:43;;;;;;;9.90;6.30;;;25.10;99.90;;;;;;5068720;28;20068;-75
2022/08/28 01:33:13;;;;;;;8.57;6.18;;;25.10;99.90;;;;;;5052717;28;20071;-73
2022/08/28 01:35:46;;;;;;;10.60;5.90;;;25.10;99.90;;;;;;5072326;28;20059;-73
2022/08/28 01:38:16;;;;;;;12.35;6.88;;;24.90;99.90;;;;;;5040090;28;20087;-73
2022/08/28 01:40:47;;;;;;;11.55;7.35;;;24.90;99.90;;;;;;5072772;28;20110;-72
2022/08/28 01:43:17;;;;;;;9.85;6.47;;;24.90;99.90;;;;;;5104722;28;20445;-72
2022/08/28 01:45:51;;;;;;;10.85;7.22;;;25.00;99.90;;;;;;5036298;28;20522;-73
2022/08/28 01:48:22;;;;;;;11.93;6.50;;;24.80;99.90;;;;;;5052753;28;20094;-73
2022/08/28 01:50:51;;;;;;;9.68;6.40;;;24.80;99.90;;;;;;5052762;28;20130;-73
2022/08/28 01:53:24;;;;;;;8.48;6.28;;;24.80;99.90;;;;;;5035990;28;20134;-72
2022/08/28 01:55:53;;;;;;;12.07;6.65;;;24.80;99.90;;;;;;5052612;28;20049;-73
2022/08/28 01:58:22;;;;;;;12.60;6.50;;;24.70;99.90;;;;;;5053802;28;20074;-73
2022/08/28 02:00:52;;;;;;;9.93;6.63;;;24.70;99.90;;;;;;5052597;28;20069;-73
2022/08/28 02:03:22;;;;;;;13.50;7.55;;;24.60;99.90;;;;;;5053756;28;20073;-72
2022/08/28 02:05:50;;;;;;;8.05;5.88;;;24.60;99.90;;;;;;5035797;28;20049;-73
2022/08/28 02:08:17;;;;;;;9.38;6.38;;;24.60;99.90;;;;;;5068587;28;20045;-73
2022/08/28 02:10:45;;;;;;;10.38;5.97;;;24.60;99.90;;;;;;5053549;28;20490;-73
2022/08/28 02:13:13;;;;;;;10.38;6.40;;;24.60;99.90;;;;;;5052274;28;20116;-72
2022/08/28 02:15:42;;;;;;;11.43;6.07;;;24.60;99.90;;;;;;5051792;28;20526;-74
2022/08/28 02:18:09;;;;;;;9.90;6.53;;;24.50;99.90;;;;;;5085787;28;20124;-73
2022/08/28 02:20:37;;;;;;;12.90;6.38;;;24.60;99.90;;;;;;5052194;28;20060;-73
2022/08/28 02:23:05;;;;;;;8.75;5.82;;;24.60;99.90;;;;;;5051875;28;20040;-73
2022/08/28 02:25:32;;;;;;;7.53;5.65;;;24.50;99.90;;;;;;5051564;28;20041;-73
2022/08/28 02:28:00;;;;;;;11.70;6.35;;;24.60;99.90;;;;;;5068264;28;20059;-74
2022/08/28 02:30:27;;;;;;;10.63;6.15;;;24.60;99.90;;;;;;5051671;28;20088;-73
2022/08/28 02:32:55;;;;;;;8.75;6.22;;;24.60;99.90;;;;;;5037175;28;20036;-73
2022/08/28 02:35:23;;;;;;;8.15;6.40;;;24.70;99.90;;;;;;5052688;28;20049;-73
2022/08/28 02:37:51;;;;;;;9.88;6.72;;;24.80;99.90;;;;;;5068148;28;20095;-73
2022/08/28 02:40:21;;;;;;;9.52;6.40;;;24.80;99.90;;;;;;5068489;28;20585;-72
2022/08/28 02:42:49;;;;;;;10.95;6.53;;;24.80;99.90;;;;;;5068195;28;20140;-72
2022/08/28 02:45:18;;;;;;;14.50;7.47;;;24.80;99.90;;;;;;5050817;28;20056;-73
2022/08/28 02:47:49;;;;;;;10.38;6.05;;;24.80;99.90;;;;;;5050978;28;20590;-73
2022/08/28 02:50:18;;;;;;;9.68;6.55;;;24.80;99.90;;;;;;5052642;28;20038;-72
2022/08/28 02:52:46;;;;;;;9.75;6.28;;;24.90;99.90;;;;;;5068147;28;20068;-73
2022/08/28 02:55:16;;;;;;;16.63;7.65;;;24.80;99.90;;;;;;5067824;28;20785;-73
2022/08/28 02:57:46;;;;;;;10.10;7.32;;;24.90;99.90;;;;;;5052461;28;20140;-73
2022/08/28 03:00:20;;;;;;;11.00;5.93;;;24.90;99.90;;;;;;5051768;28;20104;-73
2022/08/28 03:02:48;;;;;;;9.52;5.90;;;25.00;99.90;;;;;;5096487;28;20041;-72
2022/08/28 03:05:20;;;;;;;11.18;6.68;;;25.00;99.90;;;;;;5051269;28;20093;-73
2022/08/28 03:07:49;;;;;;;11.05;6.25;;;25.00;99.90;;;;;;5034839;28;20048;-73
2022/08/28 03:10:17;;;;;;;8.98;6.97;;;25.00;99.90;;;;;;5051182;28;20561;-73
2022/08/28 03:12:45;;;;;;;9.45;6.43;;;25.00;99.90;;;;;;5052309;28;20041;-73
2022/08/28 03:15:13;;;;;;;11.90;7.05;;;25.00;99.90;;;;;;5067268;28;20045;-73
2022/08/28 03:17:40;;;;;;;10.75;7.10;;;24.90;99.90;;;;;;5051945;28;20049;-73
2022/08/28 03:20:09;;;;;;;8.85;6.50;;;24.90;99.90;;;;;;5067408;28;20502;-73
2022/08/28 03:25:23;;;;;;;10.98;7.32;;;25.00;99.90;;;;;;5071946;28;20052;-73
2022/08/28 03:27:51;;;;;;;14.32;7.47;;;25.00;99.90;;;;;;5070571;28;20053;-73
2022/08/28 03:30:19;;;;;;;9.65;7.22;;;25.00;99.90;;;;;;5070272;28;20056;-73
2022/08/28 03:32:48;;;;;;;13.70;8.35;;;25.00;99.90;;;;;;5087633;28;20086;-73
2022/08/28 03:35:16;;;;;;;12.70;7.78;;;25.00;99.90;;;;;;5087269;28;20055;-73
2022/08/28 03:37:44;;;;;;;10.30;5.88;;;25.00;99.90;;;;;;5087656;28;20044;-73
2022/08/28 03:40:13;;;;;;;16.42;7.22;;;25.10;99.90;;;;;;5087209;28;20137;-72
2022/08/28 03:42:40;;;;;;;13.55;7.85;;;25.10;99.90;;;;;;5104190;28;20048;-74
2022/08/28 03:45:09;;;;;;;9.95;7.35;;;25.10;99.90;;;;;;5053914;28;20048;-73
2022/08/28 03:47:39;;;;;;;12.15;7.35;;;25.10;99.90;;;;;;5071303;28;20056;-72
2022/08/28 03:50:10;;;;;;;11.57;7.55;;;25.10;99.90;;;;;;5070245;28;20037;-72
2022/08/28 03:52:39;;;;;;;10.65;6.50;;;25.10;99.90;;;;;;5070385;28;20033;-73
2022/08/28 03:55:10;;;;;;;11.18;7.57;;;25.10;99.90;;;;;;5070295;28;20051;-73
2022/08/28 03:57:38;;;;;;;11.27;7.53;;;25.10;99.90;;;;;;5069931;28;20058;-72
2022/08/28 04:00:10;;;;;;;10.43;7.10;;;25.00;99.90;;;;;;5053612;28;20059;-73
2022/08/28 04:02:42;;;;;;;11.13;6.97;;;25.10;99.90;;;;;;5053852;28;20068;-73
2022/08/28 04:05:12;;;;;;;11.48;6.78;;;25.10;99.90;;;;;;5070120;28;20063;-72
2022/08/28 04:07:40;;;;;;;11.88;7.50;;;25.10;99.90;;;;;;5053599;28;20051;-72
2022/08/28 04:10:08;;;;;;;12.73;8.77;;;25.00;99.90;;;;;;5084970;28;20402;-73
2022/08/28 04:12:36;;;;;;;9.55;7.13;;;24.90;99.90;;;;;;5070037;28;21064;-73
2022/08/28 04:15:04;;;;;;;11.95;8.45;;;24.90;99.90;;;;;;5103597;28;20032;-72
2022/08/28 04:17:33;;;;;;;11.65;8.13;;;24.80;99.90;;;;;;5053429;28;20048;-73
2022/08/28 04:20:00;;;;;;;13.40;8.27;;;24.80;99.90;;;;;;5069646;28;20043;-72
2022/08/28 04:22:29;;;;;;;14.10;9.77;;;24.70;99.90;;;;;;5102967;28;20080;-73
2022/08/28 04:24:56;;;;;;;11.65;7.68;;;24.80;99.90;;;;;;5053179;28;20056;-73
2022/08/28 04:27:24;;;;;;;11.85;7.97;;;24.80;99.90;;;;;;5085967;28;20135;-73
2022/08/28 04:29:52;;;;;;;14.82;7.43;;;24.80;99.90;;;;;;5103036;28;20056;-73
2022/08/28 04:32:21;;;;;;;14.27;9.15;;;24.80;99.90;;;;;;5069821;28;20044;-73
2022/08/28 04:34:49;;;;;;;11.90;8.13;;;24.90;99.90;;;;;;5070748;28;20128;-73
2022/08/28 04:37:17;;;;;;;19.33;9.45;;;24.80;99.90;;;;;;5069522;28;20064;-72
2022/08/28 04:39:45;;;;;;;16.13;9.73;;;24.90;99.90;;;;;;5102987;28;20127;-73
2022/08/28 04:42:13;;;;;;;13.75;9.40;;;25.00;99.90;;;;;;5086172;28;20503;-73
2022/08/28 04:44:41;;;;;;;12.35;9.27;;;25.10;99.90;;;;;;5070787;28;20052;-73
2022/08/28 04:47:08;;;;;;;12.30;9.27;;;25.10;99.90;;;;;;5069866;28;20091;-73
2022/08/28 04:49:36;;;;;;;13.20;8.27;;;25.00;99.90;;;;;;5102544;28;20450;-73
2022/08/28 04:52:04;;;;;;;15.07;9.00;;;25.10;99.90;;;;;;5063672;28;20143;-72
2022/08/28 04:54:33;;;;;;;11.75;7.93;;;25.20;99.90;;;;;;5068205;28;20135;-72
2022/08/28 04:57:01;;;;;;;11.68;8.23;;;25.30;99.90;;;;;;5047564;28;20533;-73
2022/08/28 04:59:29;;;;;;;13.57;8.00;;;25.40;99.90;;;;;;5068122;28;20045;-72
2022/08/28 05:01:56;;;;;;;13.35;8.02;;;25.60;99.90;;;;;;5067169;28;20124;-72
2022/08/28 05:04:25;;;;;;;12.00;8.25;;;25.70;99.90;;;;;;5068428;28;20121;-72
2022/08/28 05:06:53;;;;;;;11.80;7.68;;;25.90;99.90;;;;;;5064563;28;20071;-72
2022/08/28 05:09:20;;;;;;;12.23;7.43;;;26.00;99.90;;;;;;5082760;28;20044;-72
2022/08/28 05:11:48;;;;;;;13.02;8.00;;;26.00;99.90;;;;;;5058623;28;20414;-73
2022/08/28 05:14:16;;;;;;;9.95;8.38;;;25.90;99.90;;;;;;5052409;28;20596;-73
2022/08/28 05:16:50;;;;;;;13.57;8.35;;;26.00;99.90;;;;;;5052847;28;20065;-72
2022/08/28 05:19:19;;;;;;;11.73;7.65;;;26.00;99.90;;;;;;5052635;28;20045;-73
2022/08/28 05:21:47;;;;;;;11.73;8.05;;;26.10;99.90;;;;;;5051930;28;20407;-73
2022/08/28 05:24:16;;;;;;;12.52;8.85;;;26.20;99.90;;;;;;5051834;28;20089;-72
2022/08/28 05:26:45;;;;;;;13.63;8.85;;;26.10;99.90;;;;;;5097885;27;20572;-72
2022/08/28 05:29:13;;;;;;;11.65;7.63;;;26.30;99.90;;;;;;5089717;28;20146;-73
2022/08/28 05:31:40;;;;;;;9.65;7.22;;;26.40;99.90;;;;;;5073584;28;20135;-72
2022/08/28 05:34:09;;;;;;;9.98;7.38;;;26.50;99.90;;;;;;5073938;28;20518;-74
2022/08/28 05:36:38;;;;;;;10.25;6.95;;;26.60;99.90;;;;;;5089479;28;20048;-72
2022/08/28 05:39:08;;;;;;;9.95;6.82;;;26.80;99.90;;;;;;5073090;28;20048;-72
2022/08/28 05:41:38;;;;;;;10.27;6.80;;;26.90;99.90;;;;;;5073986;28;20044;-72
2022/08/28 05:44:09;;;;;;;8.57;6.43;;;26.90;99.90;;;;;;5072713;28;20056;-72
2022/08/28 05:46:38;;;;;;;9.30;6.53;;;26.90;99.90;;;;;;5071953;28;20137;-72
2022/08/28 05:49:07;;;;;;;9.07;7.68;;;27.00;99.90;;;;;;5072915;28;20391;-73
2022/08/28 05:51:42;;;;;;;8.90;5.93;;;27.20;99.90;;;;;;5072574;28;20435;-72
2022/08/28 05:54:10;;;;;;;7.88;6.20;;;27.30;99.90;;;;;;5072791;28;20136;-73
2022/08/28 05:56:39;;;;;;;7.28;5.25;;;27.50;99.90;;;;;;5089121;28;20045;-72
2022/08/28 05:59:08;;;;;;;9.70;6.45;;;27.60;99.90;;;;;;5072592;28;20040;-72
2022/08/28 06:01:40;;;;;;;11.13;7.53;;;27.70;99.90;;;;;;5055368;28;20076;-72
2022/08/28 06:04:11;;;;;;;10.68;7.00;;;27.90;99.90;;;;;;5072406;28;20437;-72
2022/08/28 06:06:40;;;;;;;8.32;5.22;;;28.00;99.90;;;;;;5106073;28;20483;-72
2022/08/28 06:09:14;;;;;;;8.43;6.75;;;27.90;99.90;;;;;;5089085;28;20403;-72
2022/08/28 06:11:43;;;;;;;10.68;6.15;;;28.00;99.90;;;;;;5072213;28;20045;-72
2022/08/28 06:14:13;;;;;;;9.73;5.70;;;28.10;99.90;;;;;;5089038;28;20040;-72
2022/08/28 06:16:43;;;;;;;8.35;5.85;;;28.00;99.90;;;;;;5106070;28;20124;-72
2022/08/28 06:19:12;;;;;;;9.05;6.13;;;27.80;99.90;;;;;;5072224;28;20040;-72
2022/08/28 06:21:40;;;;;;;8.65;6.32;;;27.70;99.90;;;;;;5072749;28;20049;-72
2022/08/28 06:24:09;;;;;;;8.27;6.00;;;27.50;99.90;;;;;;5105753;28;20049;-73
2022/08/28 06:26:36;;;;;;;8.32;6.05;;;27.60;99.90;;;;;;5073158;28;20048;-73
2022/08/28 06:29:11;;;;;;;9.95;6.30;;;27.50;99.90;;;;;;5072200;28;20143;-72
2022/08/28 06:31:39;;;;;;;9.00;6.20;;;27.60;99.90;;;;;;5071438;28;20079;-73
2022/08/28 06:34:08;;;;;;;9.93;6.80;;;27.80;99.90;;;;;;5070290;28;20053;-72
2022/08/28 06:36:38;;;;;;;9.75;5.93;;;27.90;99.90;;;;;;5088519;28;20479;-73
2022/08/28 06:39:06;;;;;;;8.25;6.32;;;27.90;99.90;;;;;;5088759;28;20040;-72
2022/08/28 06:41:39;;;;;;;8.25;5.50;;;28.00;99.90;;;;;;5072695;28;20044;-72
2022/08/28 06:44:18;;;;;;;7.93;5.82;;;28.10;99.90;;;;;;5088694;28;20132;-72
2022/08/28 06:46:48;;;;;;;8.63;6.97;;;28.20;99.90;;;;;;5071748;28;20403;-72
2022/08/28 06:49:16;;;;;;;8.77;6.35;;;27.90;99.90;;;;;;5072825;28;20041;-72
2022/08/28 06:51:43;;;;;;;7.93;5.65;;;27.80;99.90;;;;;;5105195;28;20044;-72
2022/08/28 06:54:11;;;;;;;10.75;6.80;;;27.70;99.90;;;;;;5072633;28;20072;-73
2022/08/28 06:56:39;;;;;;;8.63;5.07;;;27.60;99.90;;;;;;5071409;28;20048;-72
2022/08/28 06:59:06;;;;;;;8.77;5.80;;;27.60;99.90;;;;;;5071731;28;20048;-72
2022/08/28 07:01:36;;;;;;;11.77;6.32;;;27.60;99.90;;;;;;5071100;28;20115;-72
2022/08/28 07:04:07;;;;;;;8.50;5.35;;;27.60;99.90;;;;;;5104652;28;20040;-73
2022/08/28 07:06:38;;;;;;;9.88;5.72;;;27.90;99.90;;;;;;5071229;28;20063;-73
2022/08/28 07:09:09;;;;;;;10.05;5.65;;;28.10;99.90;;;;;;5071246;28;20518;-72
2022/08/28 07:11:38;;;;;;;7.88;5.78;;;28.60;99.90;;;;;;5087497;28;20058;-72
2022/08/28 07:14:06;;;;;;;7.95;5.82;;;28.70;99.90;;;;;;5071062;28;20120;-72
2022/08/28 07:16:37;;;;;;;7.65;5.18;;;28.80;99.90;;;;;;5054851;28;20052;-73
2022/08/28 07:19:07;;;;;;;8.02;5.78;;;29.00;99.90;;;;;;5071127;28;20045;-72
2022/08/28 07:21:36;;;;;;;6.65;5.45;;;29.00;99.90;;;;;;5104484;28;20483;-73
2022/08/28 07:24:04;;;;;;;6.68;5.35;;;29.10;99.90;;;;;;5072153;28;20045;-72
2022/08/28 07:26:32;;;;;;;8.75;5.13;;;29.10;99.90;;;;;;5104632;28;20040;-72
2022/08/28 07:29:01;;;;;;;9.48;5.50;;;29.30;99.90;;;;;;5070804;28;20040;-72
2022/08/28 07:31:29;;;;;;;8.63;5.75;;;29.30;99.90;;;;;;5069679;28;20503;-72
2022/08/28 07:33:57;;;;;;;8.68;5.15;;;29.30;99.90;;;;;;5102141;28;20134;-72
2022/08/28 07:36:26;;;;;;;9.77;5.47;;;29.40;99.90;;;;;;5070628;28;20105;-72
2022/08/28 07:38:58;;;;;;;10.10;5.18;;;29.20;99.90;;;;;;5070840;28;20048;-71
2022/08/28 07:41:29;;;;;;;7.15;5.18;;;28.80;99.90;;;;;;5054039;28;20094;-72
2022/08/28 07:46:44;;;;;;;9.65;5.40;;;29.00;99.90;;;;;;5071860;28;20052;-72
2022/08/28 07:49:15;;;;;;;8.23;5.68;;;29.20;99.90;;;;;;5070343;28;20052;-72
2022/08/28 07:51:43;;;;;;;8.15;5.15;;;29.30;99.90;;;;;;5103484;28;20044;-72
2022/08/28 07:54:11;;;;;;;5.38;4.75;;;29.50;99.90;;;;;;5070206;28;20064;-72
2022/08/28 07:56:39;;;;;;;6.50;5.60;;;29.60;99.90;;;;;;5070002;28;20075;-72
2022/08/28 07:59:09;;;;;;;8.90;5.18;;;29.70;99.90;;;;;;5070197;28;20490;-71
2022/08/28 08:01:41;;;;;;;7.60;5.38;;;29.30;99.90;;;;;;5071316;28;20102;-72
2022/08/28 08:04:14;;;;;;;11.52;7.22;;;29.30;99.90;;;;;;5103771;28;20068;-72
2022/08/28 08:06:43;;;;;;;8.15;5.35;;;29.60;99.90;;;;;;5087101;28;20045;-73
2022/08/28 08:09:13;;;;;;;7.22;4.88;;;29.90;99.90;;;;;;5070071;28;20049;-72
2022/08/28 08:11:42;;;;;;;7.80;5.03;;;30.10;99.90;;;;;;5069542;28;20552;-74
2022/08/28 08:14:10;;;;;;;7.38;5.30;;;30.20;99.90;;;;;;5086886;28;20437;-72
2022/08/28 08:16:42;;;;;;;5.90;4.68;;;30.00;99.90;;;;;;5068139;28;20509;-72
2022/08/28 08:19:13;;;;;;;5.90;4.70;;;30.20;99.90;;;;;;5102046;28;20781;-72
2022/08/28 08:21:44;;;;;;;5.93;5.05;;;29.90;99.90;;;;;;5047472;28;20051;-72
2022/08/28 08:24:14;;;;;;;6.97;4.68;;;29.80;99.90;;;;;;5052215;28;20056;-72
2022/08/28 08:26:44;;;;;;;5.70;4.57;;;30.00;99.90;;;;;;5031438;28;20067;-72
2022/08/28 08:29:12;;;;;;;7.03;4.65;;;30.30;99.90;;;;;;5051575;28;20052;-72
2022/08/28 08:31:40;;;;;;;5.03;4.10;;;30.10;99.90;;;;;;5059953;28;20438;-72
2022/08/28 08:34:08;;;;;;;7.25;4.40;;;30.10;99.90;;;;;;5032436;28;20044;-71
2022/08/28 08:36:37;;;;;;;8.55;5.10;;;30.20;99.90;;;;;;5064523;28;20061;-72
2022/08/28 08:39:07;;;;;;;6.47;4.93;;;30.30;99.90;;;;;;5079177;28;20048;-72
2022/08/28 08:41:50;;;;;;;5.70;4.40;;;30.30;99.90;;;;;;5089997;28;20056;-72
2022/08/28 08:44:17;;;;;;;7.82;4.55;;;30.60;99.90;;;;;;5073261;28;20418;-72
2022/08/28 08:47:23;;;;;;;9.18;5.28;;;30.30;99.90;;;;;;5072915;28;20125;-72
2022/08/28 08:49:51;;;;;;;5.72;4.70;;;30.10;99.90;;;;;;5086640;28;20617;-72
2022/08/28 08:52:39;;;;;;;7.97;4.70;;;29.90;99.90;;;;;;5091007;28;20098;-72
2022/08/28 08:55:27;;;;;;;7.35;4.90;;;29.90;99.90;;;;;;5089665;28;20066;-71
2022/08/28 08:58:35;;;;;;;8.25;5.32;;;29.90;99.90;;;;;;5089597;28;20478;-71
2022/08/28 09:01:15;;;;;;;8.82;5.47;;;29.80;99.90;;;;;;5071998;28;20055;-73
2022/08/28 09:04:03;;;;;;;8.23;5.30;;;30.20;99.90;;;;;;5072258;28;20091;-73
2022/08/28 09:06:51;;;;;;;8.60;5.60;;;30.00;99.90;;;;;;5089382;28;20604;-72
2022/08/28 09:09:39;;;;;;;7.03;4.72;;;29.80;99.90;;;;;;5073134;28;20157;-72
2022/08/28 09:12:13;;;;;;;7.60;4.70;;;30.00;99.90;;;;;;5072775;28;20067;-72
2022/08/28 09:15:08;;;;;;;6.43;4.68;;;30.30;99.90;;;;;;5089743;28;20504;-72
2022/08/28 09:17:46;;;;;;;6.47;5.03;;;30.40;99.90;;;;;;5076876;28;20579;-72
2022/08/28 09:20:20;;;;;;;7.65;4.40;;;30.60;99.90;;;;;;5036275;28;20054;-72
2022/08/28 09:22:48;;;;;;;8.35;4.90;;;30.60;99.90;;;;;;5068982;28;20049;-72
2022/08/28 09:25:44;;;;;;;9.23;4.78;;;30.60;99.90;;;;;;5069010;28;20432;-72
2022/08/28 09:28:35;;;;;;;7.20;4.00;;;30.70;99.90;;;;;;5085962;28;20056;-71
2022/08/28 09:31:30;;;;;;;9.77;5.10;;;30.90;99.90;;;;;;5068859;28;20083;-71
2022/08/28 09:34:19;;;;;;;5.95;3.38;;;31.10;99.90;;;;;;5068627;28;20052;-72
2022/08/28 09:36:47;;;;;;;8.93;4.95;;;31.10;99.90;;;;;;5085616;28;20087;-72
2022/08/28 09:39:21;;;;;;;7.63;4.43;;;31.30;98.70;;;;;;5102510;28;20068;-73
2022/08/28 09:44:57;;;;;;;8.15;4.25;;;31.10;98.80;;;;;;5102353;28;20122;-72
2022/08/28 09:47:36;;;;;;;8.90;4.88;;;31.00;98.50;;;;;;5052358;28;20044;-72
2022/08/28 09:50:22;;;;;;;6.22;4.32;;;31.30;98.40;;;;;;5085391;28;20537;-72
2022/08/28 09:52:52;;;;;;;8.63;4.78;;;31.60;98.10;;;;;;5068692;28;20044;-71
2022/08/28 09:56:09;;;;;;;6.13;4.30;;;31.30;97.00;;;;;;5086777;28;20036;-71
2022/08/28 09:59:02;;;;;;;7.40;4.00;;;31.30;96.40;;;;;;5074823;28;20398;-72
2022/08/28 10:01:39;;;;;;;9.35;4.22;;;31.30;96.60;;;;;;5079650;27;20047;-72
2022/08/28 10:04:31;;;;;;;5.72;3.83;;;31.40;96.30;;;;;;5086226;28;20032;-72
2022/08/28 10:07:07;;;;;;;7.43;3.85;;;31.70;96.30;;;;;;5089043;28;20056;-72
2022/08/28 10:09:41;;;;;;;6.05;4.38;;;31.90;95.90;;;;;;5072279;28;20052;-72
2022/08/28 10:12:38;;;;;;;7.63;4.53;;;32.10;95.40;;;;;;5089086;28;20384;-72
2022/08/28 10:15:25;;;;;;;5.25;3.97;;;32.20;95.20;;;;;;5088561;28;20049;-73
2022/08/28 10:18:11;;;;;;;6.32;3.72;;;32.30;94.90;;;;;;5089199;28;20490;-72
2022/08/28 10:20:58;;;;;;;6.93;3.97;;;32.20;94.80;;;;;;5071861;28;20100;-71
2022/08/28 10:23:53;;;;;;;6.75;4.53;;;32.30;95.10;;;;;;5088392;28;20453;-73
2022/08/28 10:26:24;;;;;;;8.37;4.47;;;32.50;95.00;;;;;;5073269;28;20045;-72
2022/08/28 10:28:51;;;;;;;8.80;4.00;;;32.60;94.30;;;;;;5071752;28;20047;-72
2022/08/28 10:31:38;;;;;;;9.43;4.95;;;32.30;94.80;;;;;;5105105;28;20063;-73
2022/08/28 10:34:15;;;;;;;6.32;3.85;;;32.20;95.00;;;;;;5105088;28;20049;-72
2022/08/28 10:36:51;;;;;;;8.40;4.18;;;32.10;95.10;;;;;;5105316;28;20041;-72
2022/08/28 10:39:54;;;;;;;6.78;4.30;;;32.10;95.20;;;;;;5086532;28;20102;-72
2022/08/28 10:42:59;;;;;;;7.68;3.90;;;32.00;95.30;;;;;;5071535;28;20410;-72
2022/08/28 10:45:30;;;;;;;9.05;4.50;;;31.50;95.80;;;;;;5054885;28;20098;-72
2022/08/28 10:48:17;;;;;;;7.60;4.97;;;31.10;96.20;;;;;;5071911;28;20051;-73
2022/08/28 10:50:53;;;;;;;9.73;4.22;;;30.90;96.00;;;;;;5067271;28;20130;-72
2022/08/28 10:53:38;;;;;;;6.28;4.20;;;30.90;96.40;;;;;;5085114;28;20392;-72
2022/08/28 10:56:14;;;;;;;8.98;4.30;;;30.80;96.50;;;;;;5084808;28;20052;-72
2022/08/28 10:58:46;;;;;;;5.88;4.13;;;30.70;96.80;;;;;;5084744;28;20055;-73
2022/08/28 11:01:25;;;;;;;6.65;3.78;;;30.50;97.40;;;;;;5084639;28;20399;-73
2022/08/28 11:03:56;;;;;;;8.73;4.63;;;30.30;97.70;;;;;;5067549;28;20044;-73
2022/08/28 11:06:30;;;;;;;11.20;5.63;;;30.10;98.60;;;;;;5050072;28;20049;-72
2022/08/28 11:09:23;;;;;;;20.67;7.07;;;29.90;99.90;;;;;;5084434;28;20072;-72
2022/08/28 11:11:51;;;;;;;15.60;6.43;;;29.50;99.90;;;;;;5050802;28;20881;-72
2022/08/28 11:14:34;;;;;;;10.35;4.70;;;28.90;99.90;;;;;;5084712;28;20059;-71
2022/08/28 11:17:33;;;;;;;9.57;4.00;;;27.60;99.90;;;;;;5067788;28;20503;-72
2022/08/28 11:20:58;;;;;;;11.82;6.05;;;26.10;99.90;;;;;;5067553;28;20487;-72
2022/08/28 11:34:01;;;;;;;7.65;3.95;;;23.50;99.90;;;;;;4966833;28;20041;-71
2022/08/28 11:45:05;;;;;;;4.85;2.97;;;23.10;99.90;;;;;;5050403;28;20036;-69
2022/08/28 11:47:43;;;;;;;8.85;3.30;;;23.50;99.90;;;;;;5050235;28;20045;-70
2022/08/28 11:50:34;;;;;;;5.05;2.28;;;23.20;99.90;;;;;;5035394;28;20495;-70
2022/08/28 11:53:36;;;;;;;7.60;3.33;;;23.30;99.90;;;;;;5066992;28;20059;-70
2022/08/28 11:56:28;;;;;;;6.57;3.75;;;23.40;99.90;;;;;;5083485;28;20041;-71
2022/08/28 11:59:23;;;;;;;8.00;4.35;;;23.60;99.90;;;;;;5082882;28;20093;-71
2022/08/28 12:01:51;;;;;;;8.52;3.55;;;23.90;99.90;;;;;;5066480;28;20052;-70
2022/08/28 12:04:21;;;;;;;5.72;4.13;;;24.40;99.90;;;;;;5034328;28;20519;-70
2022/08/28 12:06:49;;;;;;;8.00;4.10;;;24.80;99.90;;;;;;5066821;28;20045;-70
2022/08/28 12:09:46;;;;;;;8.75;4.30;;;25.20;99.90;;;;;;5083746;28;20554;-71
2022/08/28 12:12:20;;;;;;;7.10;4.07;;;25.80;99.90;;;;;;5033650;28;20060;-73
2022/08/28 12:14:54;;;;;;;6.50;3.70;;;26.40;99.90;;;;;;5083734;28;20033;-70
2022/08/28 12:17:22;;;;;;;9.88;4.05;;;26.80;99.90;;;;;;5066583;28;20037;-71
2022/08/28 12:20:07;;;;;;;6.85;4.15;;;27.20;99.90;;;;;;5082771;28;20048;-70
2022/08/28 12:22:58;;;;;;;9.30;4.65;;;27.40;99.90;;;;;;5050241;28;20495;-71
2022/08/28 12:25:42;;;;;;;6.10;4.65;;;27.70;99.90;;;;;;5033625;28;20057;-71
2022/08/28 12:28:19;;;;;;;6.60;4.10;;;27.80;99.90;;;;;;5033662;28;20076;-71
2022/08/28 12:31:14;;;;;;;6.00;3.95;;;28.10;99.90;;;;;;5049855;28;20473;-72
2022/08/28 12:33:45;;;;;;;9.15;3.70;;;28.30;99.90;;;;;;5088604;28;20492;-71
2022/08/28 12:36:16;;;;;;;7.78;4.25;;;28.50;99.90;;;;;;5069506;28;20053;-70
2022/08/28 12:38:50;;;;;;;7.60;4.63;;;28.70;99.90;;;;;;5080430;28;20049;-71
2022/08/28 12:41:23;;;;;;;6.50;4.88;;;28.80;99.90;;;;;;5085595;28;20494;-71
2022/08/28 12:43:58;;;;;;;8.45;3.83;;;28.90;99.90;;;;;;5070595;28;20068;-71
2022/08/28 12:46:36;;;;;;;6.68;4.22;;;29.00;99.90;;;;;;5086951;28;20441;-71
2022/08/28 12:49:24;;;;;;;10.68;4.10;;;29.00;99.90;;;;;;5078653;28;20052;-71
2022/08/28 12:52:07;;;;;;;4.85;3.78;;;29.00;99.90;;;;;;5057568;28;20052;-71
2022/08/28 12:54:37;;;;;;;8.32;3.95;;;29.00;99.90;;;;;;5060344;28;20434;-70
2022/08/28 12:57:13;;;;;;;7.63;4.35;;;29.10;99.90;;;;;;5086667;28;20066;-71
2022/08/28 12:59:43;;;;;;;8.45;5.60;;;29.20;99.90;;;;;;5053819;28;20076;-72
2022/08/28 13:02:24;;;;;;;11.93;5.18;;;29.30;99.90;;;;;;5069729;28;20048;-71
2022/08/28 13:05:09;;;;;;;7.55;4.18;;;29.40;99.90;;;;;;5100275;28;20060;-71
2022/08/28 13:07:45;;;;;;;6.80;4.18;;;29.40;99.90;;;;;;5067597;28;20498;-70
2022/08/28 13:10:25;;;;;;;9.02;4.90;;;29.30;99.90;;;;;;5066031;28;20139;-72
2022/08/28 13:13:17;;;;;;;9.82;4.22;;;29.30;99.90;;;;;;5066449;28;20063;-74
2022/08/28 13:15:54;;;;;;;7.10;4.18;;;29.40;99.90;;;;;;5077562;28;20067;-72
2022/08/28 13:18:40;;;;;;;7.82;4.60;;;29.50;99.90;;;;;;5061354;28;20053;-72
2022/08/28 13:21:16;;;;;;;6.72;3.75;;;29.60;99.90;;;;;;5081751;28;20120;-72
2022/08/28 13:23:57;;;;;;;8.70;4.68;;;29.60;99.60;;;;;;5066537;28;20040;-73
2022/08/28 13:26:30;;;;;;;6.22;3.65;;;29.70;99.50;;;;;;5044979;28;20114;-73
2022/08/28 13:29:03;;;;;;;7.47;4.13;;;29.70;99.00;;;;;;5069951;28;20374;-72
2022/08/28 13:31:37;;;;;;;5.60;3.88;;;29.80;99.00;;;;;;5073529;28;20090;-71
2022/08/28 13:34:29;;;;;;;11.00;5.97;;;29.90;98.50;;;;;;5056445;28;20044;-73
2022/08/28 13:37:01;;;;;;;6.07;4.63;;;29.90;98.30;;;;;;5073233;28;20056;-72
2022/08/28 13:39:34;;;;;;;6.07;3.90;;;30.10;98.50;;;;;;5056142;28;20045;-72
2022/08/28 13:42:13;;;;;;;6.40;3.40;;;30.00;97.40;;;;;;5072760;28;20195;-72